Time;durP1;ratioP1;P1;durP2;ratioP2;P2;SDS_P1;SDS_P2;PMS_P1;PMS_P2;Temp;Humidity;BMP_temperature;BMP_pressure;BME280_temperature;BME280_humidity;BME280_pressure;Samples;Min_cycle;Max_cycle;Signal;HPM_P1;HPM_P2
2021/11/22 00:01:51;;;;;;;;;;;19.10;99.90;;;;;;5075262;28;20018;-71
2021/11/22 00:04:18;;;;;;;;;;;19.00;99.90;;;;;;5075146;28;19909;-66
2021/11/22 00:06:44;;;;;;;;;;;18.90;99.90;;;;;;5075264;28;19961;-73
2021/11/22 00:09:11;;;;;;;;;;;18.90;99.90;;;;;;5075369;28;19908;-68
2021/11/22 00:11:37;;;;;;;;;;;18.80;99.90;;;;;;5075295;28;19909;-71
2021/11/22 00:14:04;;;;;;;;;;;18.70;99.90;;;;;;5074960;28;19923;-70
2021/11/22 00:16:31;;;;;;;;;;;18.70;99.90;;;;;;5075175;28;19987;-72
2021/11/22 00:18:57;;;;;;;;;;;18.80;99.90;;;;;;5075089;28;20282;-70
2021/11/22 00:21:24;;;;;;;;;;;19.00;99.90;;;;;;5074935;28;19915;-67
2021/11/22 00:23:51;;;;;;;;;;;19.00;99.90;;;;;;5074744;28;19909;-66
2021/11/22 00:26:18;;;;;;;;;;;19.00;99.90;;;;;;5074986;28;19954;-66
2021/11/22 00:28:45;;;;;;;;;;;19.00;99.90;;;;;;5074886;28;19908;-71
2021/11/22 00:31:11;;;;;;;;;;;18.80;99.90;;;;;;5074909;28;20441;-71
2021/11/22 00:33:42;;;;;;;;;;;18.70;99.90;;;;;;5074663;28;19987;-73
2021/11/22 00:36:08;;;;;;;;;;;18.70;99.90;;;;;;5074468;28;19909;-70
2021/11/22 00:38:35;;;;;;;;;;;18.70;99.90;;;;;;5074735;28;19935;-74
2021/11/22 00:41:02;;;;;;;;;;;18.70;99.90;;;;;;5074895;28;19913;-71
2021/11/22 00:43:29;;;;;;;;;;;18.90;99.90;;;;;;5074534;28;19909;-71
2021/11/22 00:45:55;;;;;;;;;;;19.00;99.90;;;;;;5074383;28;20244;-69
2021/11/22 00:48:22;;;;;;;;;;;19.00;99.90;;;;;;5074343;28;20317;-69
2021/11/22 00:50:50;;;;;;;;;;;19.10;99.90;;;;;;5074639;28;19909;-69
2021/11/22 00:53:17;;;;;;;;;;;19.20;99.90;;;;;;5074606;28;20493;-68
2021/11/22 00:55:43;;;;;;;;;;;19.30;99.90;;;;;;5074399;28;19909;-72
2021/11/22 00:58:10;;;;;;;;;;;19.50;99.90;;;;;;5074046;28;19908;-73
2021/11/22 01:00:37;;;;;;;;;;;19.60;99.90;;;;;;5074019;28;19924;-72
2021/11/22 01:03:04;;;;;;;;;;;19.50;99.90;;;;;;5074152;28;20381;-72
2021/11/22 01:05:31;;;;;;;;;;;19.30;99.90;;;;;;5089715;28;19999;-69
2021/11/22 01:07:58;;;;;;;;;;;19.20;99.90;;;;;;5089385;28;19909;-73
2021/11/22 01:10:25;;;;;;;;;;;19.10;99.90;;;;;;5074031;28;19909;-68
2021/11/22 01:12:51;;;;;;;;;;;19.10;99.90;;;;;;5074113;28;19913;-68
2021/11/22 01:15:21;;;;;;;;;;;19.10;99.90;;;;;;5073879;28;19916;-68
2021/11/22 01:17:48;;;;;;;;;;;19.10;99.90;;;;;;5073414;28;19917;-71
2021/11/22 01:20:17;;;;;;;;;;;19.20;99.90;;;;;;5074290;28;19919;-70
2021/11/22 01:22:43;;;;;;;;;;;19.10;99.90;;;;;;5073853;28;19913;-71
2021/11/22 01:25:11;;;;;;;;;;;19.10;99.90;;;;;;5073777;28;19909;-72
2021/11/22 01:27:38;;;;;;;;;;;19.00;99.90;;;;;;5073806;28;19908;-70
2021/11/22 01:30:08;;;;;;;;;;;18.90;99.90;;;;;;5073599;28;19915;-72
2021/11/22 01:32:35;;;;;;;;;;;18.90;99.90;;;;;;5073462;28;19909;-74
2021/11/22 01:35:02;;;;;;;;;;;18.90;99.90;;;;;;5073056;28;19916;-73
2021/11/22 01:37:29;;;;;;;;;;;18.80;99.90;;;;;;5073481;28;19916;-71
2021/11/22 01:39:55;;;;;;;;;;;18.80;99.90;;;;;;5073483;28;19908;-69
2021/11/22 01:42:22;;;;;;;;;;;18.80;99.90;;;;;;5073560;28;19972;-69
2021/11/22 01:44:49;;;;;;;;;;;18.80;99.90;;;;;;5073187;28;20426;-70
2021/11/22 01:47:15;;;;;;;;;;;18.80;99.90;;;;;;5073417;28;19908;-68
2021/11/22 01:49:42;;;;;;;;;;;18.90;99.90;;;;;;5073202;28;19971;-72
2021/11/22 01:52:10;;;;;;;;;;;19.00;99.90;;;;;;5073129;28;19932;-70
2021/11/22 01:54:37;;;;;;;;;;;19.00;99.90;;;;;;5072521;28;19924;-71
2021/11/22 01:57:04;;;;;;;;;;;19.00;99.90;;;;;;5073175;28;19909;-69
2021/11/22 01:59:31;;;;;;;;;;;19.10;99.90;;;;;;5073182;28;19935;-70
2021/11/22 02:01:58;;;;;;;;;;;19.00;99.90;;;;;;5072947;28;19908;-68
2021/11/22 02:04:24;;;;;;;;;;;18.90;99.90;;;;;;5073199;28;19912;-69
2021/11/22 02:06:51;;;;;;;;;;;18.90;99.90;;;;;;5073047;28;19991;-70
2021/11/22 02:09:18;;;;;;;;;;;18.90;99.90;;;;;;5073116;28;20266;-68
2021/11/22 02:11:45;;;;;;;;;;;18.80;99.90;;;;;;5073141;28;20271;-73
2021/11/22 02:14:11;;;;;;;;;;;18.70;99.90;;;;;;5072933;28;19952;-74
2021/11/22 02:16:38;;;;;;;;;;;18.50;99.90;;;;;;5072815;28;19974;-69
2021/11/22 02:19:05;;;;;;;;;;;18.30;99.90;;;;;;5073037;28;19908;-71
2021/11/22 02:21:31;;;;;;;;;;;18.20;99.90;;;;;;5072825;28;20354;-72
2021/11/22 02:23:58;;;;;;;;;;;18.00;99.90;;;;;;5072704;28;19953;-74
2021/11/22 02:26:26;;;;;;;;;;;18.00;99.90;;;;;;5072842;28;19915;-70
2021/11/22 02:28:54;;;;;;;;;;;18.00;99.90;;;;;;5072756;28;19920;-73
2021/11/22 02:31:21;;;;;;;;;;;18.00;99.90;;;;;;5072574;28;19909;-73
2021/11/22 02:33:51;;;;;;;;;;;18.00;99.90;;;;;;5072457;28;19984;-74
2021/11/22 02:36:18;;;;;;;;;;;18.20;99.90;;;;;;5072470;28;19912;-71
2021/11/22 02:38:45;;;;;;;;;;;18.20;99.90;;;;;;5072439;28;19916;-73
2021/11/22 02:41:11;;;;;;;;;;;18.10;99.90;;;;;;5072637;28;19908;-72
2021/11/22 02:43:39;;;;;;;;;;;18.00;99.90;;;;;;5072665;28;20263;-72
2021/11/22 02:46:07;;;;;;;;;;;17.80;99.90;;;;;;5072449;28;19912;-72
2021/11/22 02:48:34;;;;;;;;;;;18.00;99.90;;;;;;5072428;28;19986;-71
2021/11/22 02:51:01;;;;;;;;;;;18.10;99.90;;;;;;5072364;28;19908;-73
2021/11/22 02:53:28;;;;;;;;;;;18.30;99.90;;;;;;5072301;28;19913;-72
2021/11/22 02:55:58;;;;;;;;;;;18.50;99.90;;;;;;5072130;28;19914;-67
2021/11/22 02:58:25;;;;;;;;;;;18.70;99.90;;;;;;5072247;28;19954;-71
2021/11/22 03:00:52;;;;;;;;;;;18.80;99.90;;;;;;5072239;28;19928;-73
2021/11/22 03:03:19;;;;;;;;;;;18.90;99.90;;;;;;5072247;28;19909;-72
2021/11/22 03:05:46;;;;;;;;;;;19.10;99.90;;;;;;5073454;28;19909;-72
2021/11/22 03:08:12;;;;;;;;;;;19.10;99.90;;;;;;5076698;28;19908;-67
2021/11/22 03:10:39;;;;;;;;;;;19.30;99.90;;;;;;5076203;28;20302;-73
2021/11/22 03:13:06;;;;;;;;;;;19.50;99.90;;;;;;5075059;28;19921;-71
2021/11/22 03:15:33;;;;;;;;;;;19.60;99.90;;;;;;5076388;28;19920;-73
2021/11/22 03:18:00;;;;;;;;;;;19.70;99.90;;;;;;5075831;28;19936;-68
2021/11/22 03:20:26;;;;;;;;;;;19.50;99.90;;;;;;5076365;28;20359;-69
2021/11/22 03:22:53;;;;;;;;;;;19.50;99.90;;;;;;5076173;28;19913;-72
2021/11/22 03:25:20;;;;;;;;;;;19.60;99.90;;;;;;5076041;28;19916;-72
2021/11/22 03:27:47;;;;;;;;;;;19.70;99.90;;;;;;5076018;28;19909;-71
2021/11/22 03:30:14;;;;;;;;;;;19.90;99.90;;;;;;5076079;28;19916;-71
2021/11/22 03:32:41;;;;;;;;;;;19.80;99.90;;;;;;5075736;28;19908;-73
2021/11/22 03:35:09;;;;;;;;;;;19.80;99.90;;;;;;5075968;28;19926;-73
2021/11/22 03:37:35;;;;;;;;;;;19.60;99.90;;;;;;5075823;28;20384;-69
2021/11/22 03:40:03;;;;;;;;;;;19.70;99.90;;;;;;5075699;28;19938;-69
2021/11/22 03:42:37;;;;;;;;;;;19.80;99.90;;;;;;5075920;28;19909;-73
2021/11/22 03:45:05;;;;;;;;;;;19.90;99.90;;;;;;5075869;28;19920;-73
2021/11/22 03:47:31;;;;;;;;;;;19.90;99.90;;;;;;5075548;28;20323;-73
2021/11/22 03:49:58;;;;;;;;;;;20.00;99.90;;;;;;5075361;28;19909;-71
2021/11/22 03:52:25;;;;;;;;;;;20.10;99.90;;;;;;5075560;28;19909;-73
2021/11/22 03:54:51;;;;;;;;;;;20.10;99.90;;;;;;5075628;28;20354;-70
2021/11/22 03:57:18;;;;;;;;;;;20.10;99.90;;;;;;5075665;28;20365;-71
2021/11/22 03:59:46;;;;;;;;;;;20.30;99.90;;;;;;5075337;28;19923;-73
2021/11/22 04:02:13;;;;;;;;;;;20.50;99.90;;;;;;5075373;28;19912;-66
2021/11/22 04:04:39;;;;;;;;;;;20.40;99.90;;;;;;5075110;28;19982;-66
2021/11/22 04:07:06;;;;;;;;;;;20.40;99.90;;;;;;5075234;28;19962;-73
2021/11/22 04:09:34;;;;;;;;;;;20.30;99.90;;;;;;5075323;28;19915;-71
2021/11/22 04:12:01;;;;;;;;;;;20.40;99.90;;;;;;5074868;28;19912;-71
2021/11/22 04:14:28;;;;;;;;;;;20.60;99.90;;;;;;5075082;28;19917;-73
2021/11/22 04:16:55;;;;;;;;;;;20.70;99.90;;;;;;5074855;28;20343;-68
2021/11/22 04:19:21;;;;;;;;;;;20.60;99.90;;;;;;5074951;28;19908;-66
2021/11/22 04:21:48;;;;;;;;;;;20.50;99.90;;;;;;5074992;28;19952;-67
2021/11/22 04:24:15;;;;;;;;;;;20.40;99.90;;;;;;5075029;28;19936;-70
2021/11/22 04:26:42;;;;;;;;;;;20.40;99.90;;;;;;5075074;28;19908;-71
2021/11/22 04:29:08;;;;;;;;;;;20.30;99.90;;;;;;5074979;28;19909;-70
2021/11/22 04:31:35;;;;;;;;;;;20.30;99.90;;;;;;5074699;28;20424;-69
2021/11/22 04:34:02;;;;;;;;;;;20.40;99.90;;;;;;5074234;28;19970;-69
2021/11/22 04:36:29;;;;;;;;;;;20.40;99.90;;;;;;5074865;28;19935;-73
2021/11/22 04:38:56;;;;;;;;;;;20.40;99.90;;;;;;5074932;28;19948;-67
2021/11/22 04:41:24;;;;;;;;;;;20.30;99.90;;;;;;5074703;28;20374;-68
2021/11/22 04:43:53;;;;;;;;;;;20.20;99.90;;;;;;5074376;28;19955;-70
2021/11/22 04:46:19;;;;;;;;;;;20.10;99.90;;;;;;5074455;28;20244;-72
2021/11/22 04:48:46;;;;;;;;;;;20.00;99.90;;;;;;5074599;28;19908;-70
2021/11/22 04:51:13;;;;;;;;;;;19.90;99.90;;;;;;5074555;28;20357;-70
2021/11/22 04:53:40;;;;;;;;;;;19.90;99.90;;;;;;5074527;28;20299;-72
2021/11/22 04:56:06;;;;;;;;;;;19.90;99.90;;;;;;5089963;28;19959;-67
2021/11/22 04:58:33;;;;;;;;;;;20.00;99.90;;;;;;5074586;28;20061;-67
2021/11/22 05:01:00;;;;;;;;;;;20.00;99.90;;;;;;5074146;28;20290;-69
2021/11/22 05:03:27;;;;;;;;;;;19.90;99.90;;;;;;5074232;28;19916;-71
2021/11/22 05:05:53;;;;;;;;;;;19.80;99.90;;;;;;5074027;28;19916;-70
2021/11/22 05:08:20;;;;;;;;;;;19.70;99.90;;;;;;5074240;28;20003;-69
2021/11/22 05:10:47;;;;;;;;;;;19.60;99.90;;;;;;5074081;28;19909;-72
2021/11/22 05:13:15;;;;;;;;;;;19.50;99.90;;;;;;5074082;28;20354;-70
2021/11/22 05:15:42;;;;;;;;;;;19.20;99.90;;;;;;5073980;28;19916;-72
2021/11/22 05:18:10;;;;;;;;;;;18.80;99.90;;;;;;5074007;28;19939;-71
2021/11/22 05:20:38;;;;;;;;;;;18.40;99.90;;;;;;5074193;28;19999;-74
2021/11/22 05:23:05;;;;;;;;;;;18.00;99.90;;;;;;5074122;28;19909;-70
2021/11/22 05:25:32;;;;;;;;;;;17.90;99.90;;;;;;5073894;28;20004;-69
2021/11/22 05:28:00;;;;;;;;;;;17.80;99.90;;;;;;5073575;28;19962;-75
2021/11/22 05:30:27;;;;;;;;;;;17.80;99.90;;;;;;5072495;28;20255;-67
2021/11/22 05:32:54;;;;;;;;;;;17.70;99.90;;;;;;5073551;28;19912;-69
2021/11/22 05:35:21;;;;;;;;;;;17.50;99.90;;;;;;5073786;28;19920;-72
2021/11/22 05:37:48;;;;;;;;;;;17.40;99.90;;;;;;5073369;28;19931;-72
2021/11/22 05:40:15;;;;;;;;;;;17.40;99.90;;;;;;5073640;28;20371;-72
2021/11/22 05:42:41;;;;;;;;;;;17.40;99.90;;;;;;5072528;28;19909;-69
2021/11/22 05:45:08;;;;;;;;;;;17.30;99.90;;;;;;5073707;28;19934;-76
2021/11/22 05:47:35;;;;;;;;;;;17.40;99.90;;;;;;5073151;28;19915;-71
2021/11/22 05:50:05;;;;;;;;;;;17.40;99.90;;;;;;5073265;28;19995;-71
2021/11/22 05:52:34;;;;;;;;;;;17.30;99.90;;;;;;5070753;28;20266;-77
2021/11/22 05:55:01;;;;;;;;;;;17.10;99.90;;;;;;5071350;28;19954;-71
2021/11/22 05:57:28;;;;;;;;;;;17.00;99.90;;;;;;5071302;28;20424;-77
2021/11/22 05:59:55;;;;;;;;;;;17.00;99.90;;;;;;5070843;28;19920;-74
2021/11/22 06:02:25;;;;;;;;;;;17.00;99.90;;;;;;5070338;28;21243;-71
2021/11/22 06:04:52;;;;;;;;;;;16.90;99.90;;;;;;5070984;28;19970;-74
2021/11/22 06:07:18;;;;;;;;;;;16.90;99.90;;;;;;5071079;28;20683;-70
2021/11/22 06:09:45;;;;;;;;;;;16.90;99.90;;;;;;5071303;28;19909;-74
2021/11/22 06:12:12;;;;;;;;;;;17.00;99.90;;;;;;5071003;28;19908;-71
2021/11/22 06:14:38;;;;;;;;;;;17.10;99.90;;;;;;5070849;28;19916;-73
2021/11/22 06:17:05;;;;;;;;;;;17.10;99.90;;;;;;5070289;28;19954;-70
2021/11/22 06:19:32;;;;;;;;;;;17.00;99.90;;;;;;5070811;28;20275;-73
2021/11/22 06:21:59;;;;;;;;;;;17.00;99.90;;;;;;5070513;28;19912;-74
2021/11/22 06:24:25;;;;;;;;;;;16.90;99.90;;;;;;5070460;28;19958;-74
2021/11/22 06:26:55;;;;;;;;;;;16.80;99.90;;;;;;5070320;28;19936;-70
2021/11/22 06:29:22;;;;;;;;;;;16.80;99.90;;;;;;5070587;28;19909;-71
2021/11/22 06:31:49;;;;;;;;;;;16.90;99.90;;;;;;5069993;28;20298;-69
2021/11/22 06:34:16;;;;;;;;;;;16.90;99.90;;;;;;5070418;28;19981;-71
2021/11/22 06:36:43;;;;;;;;;;;16.80;99.90;;;;;;5070444;28;20002;-70
2021/11/22 06:39:09;;;;;;;;;;;17.00;99.90;;;;;;5070277;28;20316;-72
2021/11/22 06:41:36;;;;;;;;;;;17.00;99.90;;;;;;5070082;28;19909;-71
2021/11/22 06:44:03;;;;;;;;;;;17.00;99.90;;;;;;5069676;28;19912;-72
2021/11/22 06:46:30;;;;;;;;;;;17.00;99.90;;;;;;5070299;28;19909;-69
2021/11/22 06:48:57;;;;;;;;;;;17.00;99.90;;;;;;5070169;28;19963;-75
2021/11/22 06:51:23;;;;;;;;;;;17.10;99.90;;;;;;5070285;28;19913;-68
2021/11/22 06:53:50;;;;;;;;;;;17.10;99.90;;;;;;5069999;28;20255;-71
2021/11/22 06:56:17;;;;;;;;;;;17.20;99.90;;;;;;5069873;28;20267;-70
2021/11/22 06:58:43;;;;;;;;;;;17.30;99.90;;;;;;5070260;28;19917;-69
2021/11/22 07:01:10;;;;;;;;;;;17.30;99.90;;;;;;5068415;28;19920;-68
2021/11/22 07:03:37;;;;;;;;;;;17.30;99.90;;;;;;5069766;28;20006;-75
2021/11/22 07:06:07;;;;;;;;;;;17.30;99.90;;;;;;5069997;28;19919;-67
2021/11/22 07:08:34;;;;;;;;;;;17.30;99.90;;;;;;5070067;28;20318;-72
2021/11/22 07:11:00;;;;;;;;;;;17.40;99.90;;;;;;5069992;28;19908;-69
2021/11/22 07:13:27;;;;;;;;;;;17.40;99.90;;;;;;5069636;28;19920;-67
2021/11/22 07:15:54;;;;;;;;;;;17.30;99.90;;;;;;5069743;28;20642;-72
2021/11/22 07:18:21;;;;;;;;;;;17.40;99.90;;;;;;5085215;28;20397;-71
2021/11/22 07:20:48;;;;;;;;;;;17.40;99.90;;;;;;5069617;28;19919;-70
2021/11/22 07:23:15;;;;;;;;;;;17.40;99.90;;;;;;5069934;28;19939;-71
2021/11/22 07:25:42;;;;;;;;;;;17.40;99.90;;;;;;5070267;28;19916;-73
2021/11/22 07:28:09;;;;;;;;;;;17.40;99.90;;;;;;5069597;28;19966;-73
2021/11/22 07:30:36;;;;;;;;;;;17.50;99.90;;;;;;5070064;28;19966;-71
2021/11/22 07:33:03;;;;;;;;;;;17.50;99.90;;;;;;5069998;28;19916;-73
2021/11/22 07:35:30;;;;;;;;;;;17.60;99.90;;;;;;5069831;28;19934;-71
2021/11/22 07:37:57;;;;;;;;;;;17.60;99.90;;;;;;5069793;28;19912;-71
2021/11/22 07:40:24;;;;;;;;;;;17.60;99.90;;;;;;5069495;28;19923;-68
2021/11/22 07:42:51;;;;;;;;;;;17.70;99.90;;;;;;5069540;28;19920;-70
2021/11/22 07:45:18;;;;;;;;;;;17.60;99.90;;;;;;5069387;28;20003;-72
2021/11/22 07:47:45;;;;;;;;;;;17.70;99.90;;;;;;5069696;28;20366;-72
2021/11/22 07:50:11;;;;;;;;;;;17.70;99.90;;;;;;5068181;28;19928;-71
2021/11/22 07:52:38;;;;;;;;;;;17.60;99.90;;;;;;5069841;28;19961;-72
2021/11/22 07:55:05;;;;;;;;;;;17.60;99.90;;;;;;5072876;28;20358;-69
2021/11/22 07:57:32;;;;;;;;;;;17.60;99.90;;;;;;5073367;28;19951;-72
2021/11/22 07:59:59;;;;;;;;;;;17.60;99.90;;;;;;5072802;28;19921;-73
2021/11/22 08:02:25;;;;;;;;;;;17.60;99.90;;;;;;5073368;28;20211;-70
2021/11/22 08:04:53;;;;;;;;;;;17.70;99.90;;;;;;5073328;28;19909;-69
2021/11/22 08:07:21;;;;;;;;;;;17.70;99.90;;;;;;5090618;28;19954;-73
2021/11/22 08:09:59;;;;;;;;;;;17.80;99.90;;;;;;5074841;28;19909;-74
2021/11/22 08:12:27;;;;;;;;;;;17.70;99.90;;;;;;5075187;28;19994;-74
2021/11/22 08:14:58;;;;;;;;;;;17.70;99.90;;;;;;5074899;28;20377;-72
2021/11/22 08:17:25;;;;;;;;;;;17.70;99.90;;;;;;5075251;28;19908;-69
2021/11/22 08:19:53;;;;;;;;;;;17.80;99.90;;;;;;5074945;28;19915;-73
2021/11/22 08:22:23;;;;;;;;;;;17.80;99.90;;;;;;5075139;28;19975;-69
2021/11/22 08:24:52;;;;;;;;;;;17.80;99.90;;;;;;5075177;28;19915;-68
2021/11/22 08:27:23;;;;;;;;;;;17.80;99.90;;;;;;5075088;28;19978;-69
2021/11/22 08:29:50;;;;;;;;;;;17.80;99.90;;;;;;5074594;28;19956;-70
2021/11/22 08:32:17;;;;;;;;;;;17.80;99.90;;;;;;5075020;28;20255;-74
2021/11/22 08:34:44;;;;;;;;;;;17.80;99.90;;;;;;5074550;28;19924;-73
2021/11/22 08:37:11;;;;;;;;;;;17.80;99.90;;;;;;5074995;28;19955;-71
2021/11/22 08:39:38;;;;;;;;;;;17.80;99.90;;;;;;5073719;28;19958;-73
2021/11/22 08:42:05;;;;;;;;;;;17.70;99.90;;;;;;5074749;28;19962;-67
2021/11/22 08:44:32;;;;;;;;;;;17.70;99.90;;;;;;5074625;28;19909;-71
2021/11/22 08:46:59;;;;;;;;;;;17.70;99.90;;;;;;5073434;28;19915;-74
2021/11/22 08:49:27;;;;;;;;;;;17.70;99.90;;;;;;5074841;28;19908;-70
2021/11/22 08:51:54;;;;;;;;;;;17.70;99.90;;;;;;5074554;28;19969;-71
2021/11/22 08:54:21;;;;;;;;;;;17.70;99.90;;;;;;5074643;28;19916;-72
2021/11/22 08:56:47;;;;;;;;;;;17.70;99.90;;;;;;5074697;28;20382;-72
2021/11/22 08:59:17;;;;;;;;;;;17.70;99.90;;;;;;5074403;28;19912;-72
2021/11/22 09:01:47;;;;;;;;;;;17.70;99.90;;;;;;5074631;28;20005;-69
2021/11/22 09:04:20;;;;;;;;;;;17.70;99.90;;;;;;5074462;28;19913;-70
2021/11/22 09:06:46;;;;;;;;;;;17.70;99.90;;;;;;5074493;28;19909;-74
2021/11/22 09:09:13;;;;;;;;;;;17.70;99.90;;;;;;5074337;28;20006;-70
2021/11/22 09:11:40;;;;;;;;;;;17.70;99.90;;;;;;5074247;28;19930;-74
2021/11/22 09:14:07;;;;;;;;;;;17.70;99.90;;;;;;5073815;28;20084;-75
2021/11/22 09:16:34;;;;;;;;;;;17.70;99.90;;;;;;5074265;28;19912;-75
2021/11/22 09:19:01;;;;;;;;;;;17.70;99.90;;;;;;5074356;28;19952;-75
2021/11/22 09:21:28;;;;;;;;;;;17.70;99.90;;;;;;5074112;28;20341;-72
2021/11/22 09:23:55;;;;;;;;;;;17.70;99.90;;;;;;5073830;28;19912;-69
2021/11/22 09:26:22;;;;;;;;;;;17.70;99.90;;;;;;5074163;28;19913;-70
2021/11/22 09:28:49;;;;;;;;;;;17.70;99.90;;;;;;5074298;28;19915;-69
2021/11/22 09:31:16;;;;;;;;;;;17.70;99.90;;;;;;5073883;28;19908;-70
2021/11/22 09:33:46;;;;;;;;;;;17.70;99.90;;;;;;5073782;28;19920;-70
2021/11/22 09:36:14;;;;;;;;;;;17.70;99.90;;;;;;5070593;28;19921;-70
2021/11/22 09:38:40;;;;;;;;;;;17.70;99.90;;;;;;5073718;28;20003;-71
2021/11/22 09:41:07;;;;;;;;;;;17.70;99.90;;;;;;5089371;28;20231;-71
2021/11/22 09:43:34;;;;;;;;;;;17.70;99.90;;;;;;5073442;28;19909;-75
2021/11/22 09:46:01;;;;;;;;;;;17.70;99.90;;;;;;5072678;28;19909;-72
2021/11/22 09:48:27;;;;;;;;;;;17.70;99.90;;;;;;5073368;28;19915;-74
2021/11/22 09:50:54;;;;;;;;;;;17.70;99.90;;;;;;5073303;28;19971;-68
2021/11/22 09:53:22;;;;;;;;;;;17.70;99.90;;;;;;5073428;28;19912;-68
2021/11/22 09:55:48;;;;;;;;;;;17.70;99.90;;;;;;5073122;28;20062;-68
2021/11/22 09:58:15;;;;;;;;;;;17.70;99.90;;;;;;5073308;28;19910;-73
2021/11/22 10:00:46;;;;;;;;;;;17.70;99.90;;;;;;5072990;28;20386;-74
2021/11/22 10:03:15;;;;;;;;;;;17.70;99.90;;;;;;5073054;28;19920;-69
2021/11/22 10:05:42;;;;;;;;;;;17.70;99.90;;;;;;5073176;28;19909;-68
2021/11/22 10:08:13;;;;;;;;;;;17.70;99.90;;;;;;5072799;28;19909;-68
2021/11/22 10:10:40;;;;;;;;;;;17.70;99.90;;;;;;5072960;28;19908;-73
2021/11/22 10:13:25;;;;;;;;;;;17.70;99.90;;;;;;5072846;28;20363;-74
2021/11/22 10:15:54;;;;;;;;;;;17.70;99.90;;;;;;5071598;28;20237;-72
2021/11/22 10:18:22;;;;;;;;;;;17.70;99.90;;;;;;5073006;28;19908;-68
2021/11/22 10:20:50;;;;;;;;;;;17.70;99.90;;;;;;5072777;28;19908;-68
2021/11/22 10:23:21;;;;;;;;;;;17.70;99.90;;;;;;5072799;28;19916;-69
2021/11/22 10:25:48;;;;;;;;;;;17.70;99.90;;;;;;5072693;28;20344;-67
2021/11/22 10:28:19;;;;;;;;;;;17.80;99.90;;;;;;5072630;28;19909;-71
2021/11/22 10:30:48;;;;;;;;;;;17.80;99.90;;;;;;5072051;28;20354;-69
2021/11/22 10:33:16;;;;;;;;;;;17.80;99.90;;;;;;5072466;28;19995;-69
2021/11/22 10:35:45;;;;;;;;;;;17.80;99.90;;;;;;5072636;28;19961;-69
2021/11/22 10:38:17;;;;;;;;;;;17.80;99.90;;;;;;5072708;28;19916;-74
2021/11/22 10:40:45;;;;;;;;;;;17.80;99.90;;;;;;5072687;28;19912;-73
2021/11/22 10:43:12;;;;;;;;;;;17.80;99.90;;;;;;5072474;28;19909;-73
2021/11/22 10:45:41;;;;;;;;;;;17.80;99.90;;;;;;5070718;28;19916;-73
2021/11/22 10:48:18;;;;;;;;;;;17.80;99.90;;;;;;5072183;28;19915;-72
2021/11/22 10:50:50;;;;;;;;;;;17.80;99.90;;;;;;5072600;28;19954;-70
2021/11/22 10:53:27;;;;;;;;;;;17.80;99.90;;;;;;5072245;28;20002;-67
2021/11/22 10:55:54;;;;;;;;;;;17.80;99.90;;;;;;5072054;28;19909;-67
2021/11/22 10:58:35;;;;;;;;;;;17.80;99.90;;;;;;5072309;28;20274;-69
2021/11/22 11:01:19;;;;;;;;;;;17.80;99.90;;;;;;5071813;28;19929;-68
2021/11/22 11:04:01;;;;;;;;;;;17.70;99.90;;;;;;5071920;28;19912;-68
2021/11/22 11:06:39;;;;;;;;;;;17.70;99.90;;;;;;5072392;28;20020;-67
2021/11/22 11:09:07;;;;;;;;;;;17.70;99.90;;;;;;5072451;28;19909;-69
2021/11/22 11:11:34;;;;;;;;;;;17.70;99.90;;;;;;5072381;28;20294;-66
2021/11/22 11:14:11;;;;;;;;;;;17.70;99.90;;;;;;5071829;28;20344;-68
2021/11/22 11:16:38;;;;;;;;;;;17.70;99.90;;;;;;5072313;28;20266;-73
2021/11/22 11:19:14;;;;;;;;;;;17.70;99.90;;;;;;5070950;28;19909;-69
2021/11/22 11:21:42;;;;;;;;;;;17.60;99.90;;;;;;5072242;28;20274;-69
2021/11/22 11:24:10;;;;;;;;;;;17.60;99.90;;;;;;5072370;28;19908;-68
2021/11/22 11:26:37;;;;;;;;;;;17.60;99.90;;;;;;5072495;28;20251;-67
2021/11/22 11:29:05;;;;;;;;;;;17.60;99.90;;;;;;5075083;28;19908;-71
2021/11/22 11:31:34;;;;;;;;;;;17.60;99.90;;;;;;5076359;28;19952;-71
2021/11/22 11:34:03;;;;;;;;;;;17.60;99.90;;;;;;5074601;28;19912;-72
2021/11/22 11:36:37;;;;;;;;;;;17.60;99.90;;;;;;5076150;28;19908;-71
2021/11/22 11:39:21;;;;;;;;;;;17.60;99.90;;;;;;5076145;28;19919;-73
2021/11/22 11:42:12;;;;;;;;;;;17.70;99.90;;;;;;5075826;28;19908;-73
2021/11/22 11:44:48;;;;;;;;;;;17.70;99.90;;;;;;5075988;28;19909;-71
2021/11/22 11:47:22;;;;;;;;;;;17.70;99.90;;;;;;5076107;28;20369;-73
2021/11/22 11:49:49;;;;;;;;;;;17.70;99.90;;;;;;5075782;28;19908;-70
2021/11/22 11:52:29;;;;;;;;;;;17.70;99.90;;;;;;5076031;28;19935;-73
2021/11/22 11:54:57;;;;;;;;;;;17.80;99.90;;;;;;5075800;28;20428;-75
2021/11/22 11:57:25;;;;;;;;;;;17.80;99.90;;;;;;5075855;28;19917;-75
2021/11/22 11:59:52;;;;;;;;;;;17.80;99.90;;;;;;5075139;28;19921;-72
2021/11/22 12:02:21;;;;;;;;;;;17.80;99.90;;;;;;5075611;28;20366;-74
2021/11/22 12:04:51;;;;;;;;;;;17.80;99.90;;;;;;5075766;28;19914;-71
2021/11/22 12:07:33;;;;;;;;;;;17.70;99.90;;;;;;5075602;28;19940;-74
2021/11/22 12:10:13;;;;;;;;;;;17.80;99.90;;;;;;5075286;28;19909;-74
2021/11/22 12:12:49;;;;;;;;;;;17.80;99.90;;;;;;5075474;28;19959;-74
2021/11/22 12:15:19;;;;;;;;;;;17.70;99.90;;;;;;5075606;28;19924;-74
2021/11/22 12:17:46;;;;;;;;;;;17.70;99.90;;;;;;5075560;28;20356;-71
2021/11/22 12:20:12;;;;;;;;;;;17.70;99.90;;;;;;5075548;28;19913;-71
2021/11/22 12:22:43;;;;;;;;;;;17.70;99.90;;;;;;5075305;28;20406;-74
2021/11/22 12:25:29;;;;;;;;;;;17.70;99.90;;;;;;5075209;28;20011;-73
2021/11/22 12:27:56;;;;;;;;;;;17.70;99.90;;;;;;5074834;28;19991;-73
2021/11/22 12:30:29;;;;;;;;;;;17.70;99.90;;;;;;5074861;28;19909;-71
2021/11/22 12:33:14;;;;;;;;;;;17.80;99.90;;;;;;5074967;28;20323;-74
2021/11/22 12:35:40;;;;;;;;;;;17.80;99.90;;;;;;5075196;28;19916;-74
2021/11/22 12:38:20;;;;;;;;;;;17.70;99.90;;;;;;5074465;28;19935;-74
2021/11/22 12:40:48;;;;;;;;;;;17.70;99.90;;;;;;5074922;28;19956;-72
2021/11/22 12:43:15;;;;;;;;;;;17.70;99.90;;;;;;5074946;28;19913;-73
2021/11/22 12:45:55;;;;;;;;;;;17.60;99.90;;;;;;5074991;28;19912;-74
2021/11/22 12:48:25;;;;;;;;;;;17.60;99.90;;;;;;5074822;28;19909;-72
2021/11/22 12:50:56;;;;;;;;;;;17.50;99.90;;;;;;5075098;28;19912;-74
2021/11/22 12:53:23;;;;;;;;;;;17.40;99.90;;;;;;5074968;28;19916;-72
2021/11/22 12:55:50;;;;;;;;;;;17.30;99.90;;;;;;5074652;28;19936;-72
2021/11/22 12:58:16;;;;;;;;;;;17.20;99.90;;;;;;5074456;28;19908;-73
2021/11/22 13:00:44;;;;;;;;;;;17.10;99.90;;;;;;5074324;28;19928;-71
2021/11/22 13:03:13;;;;;;;;;;;17.10;99.90;;;;;;5073394;28;19908;-75
2021/11/22 13:05:46;;;;;;;;;;;17.00;99.90;;;;;;5074551;28;19918;-74
2021/11/22 13:08:19;;;;;;;;;;;16.90;99.90;;;;;;5074567;28;19913;-74
2021/11/22 13:10:49;;;;;;;;;;;16.80;99.90;;;;;;5074378;28;20290;-77
2021/11/22 13:16:02;;;;;;;;;;;16.80;99.90;;;;;;5074522;28;19966;-75
2021/11/22 13:18:36;;;;;;;;;;;16.90;99.90;;;;;;5074397;28;19908;-76
2021/11/22 13:21:07;;;;;;;;;;;16.90;99.90;;;;;;5074195;28;19912;-76
2021/11/22 13:23:35;;;;;;;;;;;16.90;99.90;;;;;;5074269;28;19999;-76
2021/11/22 13:26:03;;;;;;;;;;;16.90;99.90;;;;;;5074102;28;19962;-71
2021/11/22 13:28:36;;;;;;;;;;;16.90;99.90;;;;;;5074050;28;20089;-76
2021/11/22 13:31:09;;;;;;;;;;;16.90;99.90;;;;;;5074307;28;19915;-78
2021/11/22 13:33:36;;;;;;;;;;;16.90;99.90;;;;;;5073964;28;19970;-76
2021/11/22 13:36:04;;;;;;;;;;;16.90;99.90;;;;;;5073863;28;19934;-77
2021/11/22 13:38:32;;;;;;;;;;;16.80;99.90;;;;;;5074165;28;19919;-77
2021/11/22 13:41:09;;;;;;;;;;;16.80;99.90;;;;;;5073936;28;19908;-77
2021/11/22 13:43:36;;;;;;;;;;;16.70;99.90;;;;;;5073634;28;19915;-72
2021/11/22 13:46:04;;;;;;;;;;;16.70;99.90;;;;;;5073641;28;19909;-74
2021/11/22 13:48:46;;;;;;;;;;;16.70;99.90;;;;;;5073643;28;20351;-77
2021/11/22 13:51:18;;;;;;;;;;;16.60;99.90;;;;;;5072744;28;20258;-78
2021/11/22 13:53:45;;;;;;;;;;;16.60;99.90;;;;;;5073490;28;19919;-73
2021/11/22 13:56:28;;;;;;;;;;;16.60;99.90;;;;;;5073485;28;20374;-76
2021/11/22 13:58:56;;;;;;;;;;;16.60;99.90;;;;;;5073622;28;19912;-77
2021/11/22 14:01:23;;;;;;;;;;;16.60;99.90;;;;;;5073317;28;19925;-76
2021/11/22 14:03:50;;;;;;;;;;;16.60;99.90;;;;;;5073111;28;19964;-77
2021/11/22 14:06:18;;;;;;;;;;;16.60;99.90;;;;;;5073277;28;20337;-76
2021/11/22 14:08:45;;;;;;;;;;;16.60;99.90;;;;;;5073217;28;19952;-77
2021/11/22 14:11:22;;;;;;;;;;;16.60;99.90;;;;;;5073205;28;20398;-75
2021/11/22 14:13:49;;;;;;;;;;;16.60;99.90;;;;;;5072879;28;19958;-71
2021/11/22 14:16:17;;;;;;;;;;;16.60;99.90;;;;;;5073248;28;19958;-77
2021/11/22 14:18:44;;;;;;;;;;;16.70;99.90;;;;;;5073197;28;19915;-77
2021/11/22 14:21:11;;;;;;;;;;;16.70;99.90;;;;;;5073361;28;19954;-76
2021/11/22 14:23:38;;;;;;;;;;;16.70;99.90;;;;;;5073069;28;20351;-76
2021/11/22 14:26:09;;;;;;;;;;;16.70;99.90;;;;;;5073023;28;19935;-76